Time;durP1;ratioP1;P1;durP2;ratioP2;P2;SDS_P1;SDS_P2;PMS_P1;PMS_P2;Temp;Humidity;BMP_temperature;BMP_pressure;BME280_temperature;BME280_humidity;BME280_pressure;Samples;Min_cycle;Max_cycle;Signal;HPM_P1;HPM_P2
2021/07/29 00:02:07;;;;;;;6.10;5.40;;;22.60;92.40;;;;;;5034127;28;20482;-51
2021/07/29 00:04:35;;;;;;;7.40;5.07;;;22.60;92.50;;;;;;5034469;28;20452;-52
2021/07/29 00:07:02;;;;;;;6.13;5.17;;;22.60;92.60;;;;;;5034383;28;21031;-52
2021/07/29 00:09:28;;;;;;;7.20;5.13;;;22.60;92.70;;;;;;5033979;28;20939;-51
2021/07/29 00:11:55;;;;;;;6.37;4.93;;;22.60;92.70;;;;;;5034218;28;20423;-50
2021/07/29 00:14:21;;;;;;;6.13;5.53;;;22.60;92.80;;;;;;5034402;28;20462;-51
2021/07/29 00:16:51;;;;;;;7.37;6.10;;;22.50;92.80;;;;;;5016376;28;20465;-51
2021/07/29 00:19:16;;;;;;;6.13;5.43;;;22.50;93.00;;;;;;5033848;28;20970;-51
2021/07/29 00:21:45;;;;;;;7.20;5.03;;;22.50;93.00;;;;;;5034158;28;20466;-52
2021/07/29 00:24:12;;;;;;;5.73;5.17;;;22.40;93.10;;;;;;5033761;28;20600;-51
2021/07/29 00:26:39;;;;;;;8.13;5.97;;;22.40;93.20;;;;;;5033922;28;20442;-51
2021/07/29 00:29:06;;;;;;;9.97;6.20;;;22.30;93.40;;;;;;5033564;28;20439;-52
2021/07/29 00:31:34;;;;;;;5.23;4.73;;;22.30;93.50;;;;;;5034646;28;20529;-52
2021/07/29 00:34:02;;;;;;;5.60;5.03;;;22.20;93.50;;;;;;5033830;28;20629;-52
2021/07/29 00:36:29;;;;;;;7.70;5.73;;;22.20;93.60;;;;;;5033844;28;20457;-52
2021/07/29 00:38:56;;;;;;;6.20;5.43;;;22.20;93.80;;;;;;5033537;28;20537;-52
2021/07/29 00:41:23;;;;;;;7.67;5.60;;;22.20;94.00;;;;;;5033746;28;20449;-52
2021/07/29 00:43:59;;;;;;;6.10;4.90;;;22.20;94.40;;;;;;5033490;28;20458;-51
2021/07/29 00:46:26;;;;;;;5.33;4.83;;;22.20;94.20;;;;;;5033666;28;20818;-51
2021/07/29 00:48:54;;;;;;;6.50;5.40;;;22.10;94.20;;;;;;5033375;28;20433;-52
2021/07/29 00:51:21;;;;;;;6.20;5.40;;;22.10;94.20;;;;;;5033604;28;20497;-52
2021/07/29 00:53:48;;;;;;;5.63;5.10;;;22.10;94.40;;;;;;5033329;28;20474;-52
2021/07/29 00:56:16;;;;;;;5.80;5.30;;;22.10;94.40;;;;;;5033408;28;20954;-52
2021/07/29 00:58:43;;;;;;;7.30;5.50;;;22.10;94.50;;;;;;5033307;28;20431;-52
2021/07/29 01:01:10;;;;;;;7.23;4.67;;;22.10;94.50;;;;;;5033230;28;20892;-51
2021/07/29 01:03:36;;;;;;;5.03;4.53;;;22.10;94.60;;;;;;5033627;28;20486;-51
2021/07/29 01:06:03;;;;;;;5.50;5.00;;;22.10;94.60;;;;;;5033971;28;20435;-52
2021/07/29 01:08:29;;;;;;;7.50;4.97;;;22.10;94.70;;;;;;5033733;28;20431;-52
2021/07/29 01:10:56;;;;;;;5.30;4.80;;;22.10;94.70;;;;;;5033823;28;20943;-51
2021/07/29 01:13:24;;;;;;;5.77;5.27;;;22.10;94.80;;;;;;5033790;28;20462;-52
2021/07/29 01:15:51;;;;;;;6.00;4.77;;;22.10;94.80;;;;;;5034170;28;20431;-52
2021/07/29 01:18:17;;;;;;;5.87;5.27;;;22.10;94.90;;;;;;5033249;28;20439;-51
2021/07/29 01:20:45;;;;;;;5.60;5.00;;;22.00;94.90;;;;;;5033583;28;20434;-51
2021/07/29 01:23:12;;;;;;;5.47;4.97;;;22.00;95.00;;;;;;5033509;28;20501;-52
2021/07/29 01:25:38;;;;;;;5.27;4.77;;;22.10;95.10;;;;;;5033629;28;20434;-51
2021/07/29 01:28:05;;;;;;;5.30;4.80;;;22.10;95.20;;;;;;5033294;28;20431;-51
2021/07/29 01:30:32;;;;;;;4.80;4.30;;;22.00;95.20;;;;;;5015435;28;20521;-52
2021/07/29 01:33:03;;;;;;;5.20;4.70;;;22.00;95.20;;;;;;5033238;28;20797;-52
2021/07/29 01:35:29;;;;;;;5.67;5.17;;;22.00;95.30;;;;;;5033277;28;20433;-52
2021/07/29 01:37:57;;;;;;;5.93;5.33;;;22.00;95.40;;;;;;5033378;28;20438;-51
2021/07/29 01:40:24;;;;;;;5.47;4.97;;;21.90;95.40;;;;;;5033303;28;20431;-52
2021/07/29 01:42:50;;;;;;;6.60;5.20;;;21.90;95.50;;;;;;5033225;28;20475;-51
2021/07/29 01:45:17;;;;;;;5.13;4.63;;;21.90;95.50;;;;;;5032801;28;20430;-52
2021/07/29 01:47:44;;;;;;;5.27;4.77;;;21.90;95.70;;;;;;5032933;28;20431;-51
2021/07/29 01:50:11;;;;;;;6.03;4.80;;;21.80;95.70;;;;;;5032797;28;20468;-52
2021/07/29 01:52:39;;;;;;;5.57;5.07;;;21.90;95.90;;;;;;5032926;28;20433;-52
2021/07/29 01:55:08;;;;;;;4.70;4.30;;;21.80;96.00;;;;;;5032790;28;20469;-52
2021/07/29 01:57:37;;;;;;;6.20;5.60;;;21.70;96.10;;;;;;5032831;28;20486;-53
2021/07/29 02:00:05;;;;;;;6.00;5.03;;;21.60;96.20;;;;;;5032310;28;20442;-51
2021/07/29 02:02:39;;;;;;;5.10;4.60;;;21.60;96.40;;;;;;5032773;28;20466;-50
2021/07/29 02:05:06;;;;;;;6.30;5.23;;;21.60;96.50;;;;;;5032816;28;20809;-52
2021/07/29 02:07:33;;;;;;;5.30;4.73;;;21.50;96.60;;;;;;5033088;28;20445;-52
2021/07/29 02:09:59;;;;;;;6.03;5.20;;;21.40;96.50;;;;;;5014791;28;20972;-52
2021/07/29 02:12:27;;;;;;;5.80;4.80;;;21.40;96.80;;;;;;5032593;28;20434;-52
2021/07/29 02:14:54;;;;;;;5.53;4.83;;;21.40;96.90;;;;;;5032525;28;20451;-51
2021/07/29 02:17:21;;;;;;;5.40;4.93;;;21.40;97.00;;;;;;5032616;28;20518;-51
2021/07/29 02:19:48;;;;;;;6.93;5.10;;;21.40;97.20;;;;;;5032119;28;20522;-51
2021/07/29 02:22:15;;;;;;;5.33;4.83;;;21.30;97.20;;;;;;5014612;28;20477;-52
2021/07/29 02:24:42;;;;;;;4.87;4.47;;;21.30;97.40;;;;;;5032319;28;20465;-52
2021/07/29 02:27:08;;;;;;;6.50;5.30;;;21.30;97.50;;;;;;5032270;28;20442;-52
2021/07/29 02:29:36;;;;;;;5.13;4.70;;;21.30;97.60;;;;;;5031854;28;20927;-51
2021/07/29 02:32:03;;;;;;;5.00;4.50;;;21.30;97.70;;;;;;5032462;28;20434;-52
2021/07/29 02:34:30;;;;;;;5.00;4.50;;;21.20;97.80;;;;;;5032126;28;20453;-51
2021/07/29 02:36:57;;;;;;;5.30;4.80;;;21.20;97.80;;;;;;5032256;28;20779;-51
2021/07/29 02:39:23;;;;;;;8.77;5.90;;;21.10;98.00;;;;;;5031911;28;20944;-52
2021/07/29 02:41:50;;;;;;;8.00;5.40;;;21.20;98.10;;;;;;5031994;28;20433;-51
2021/07/29 02:44:16;;;;;;;5.27;4.67;;;21.10;98.20;;;;;;5031989;28;20970;-52
2021/07/29 02:46:44;;;;;;;7.67;5.00;;;21.10;98.30;;;;;;5032191;28;20446;-51
2021/07/29 02:49:11;;;;;;;5.87;4.30;;;21.10;98.40;;;;;;5031709;28;20469;-52
2021/07/29 02:51:38;;;;;;;6.23;5.37;;;21.10;98.50;;;;;;5032971;28;20488;-52
2021/07/29 02:54:04;;;;;;;5.30;4.80;;;21.10;98.70;;;;;;5031382;28;20468;-51
2021/07/29 02:56:31;;;;;;;6.77;5.47;;;21.00;98.70;;;;;;5032201;28;20449;-52
2021/07/29 02:58:58;;;;;;;5.37;4.57;;;21.00;98.80;;;;;;5030592;28;20508;-52
2021/07/29 03:01:25;;;;;;;5.50;4.60;;;21.00;98.90;;;;;;5031092;28;20457;-51
2021/07/29 03:03:54;;;;;;;5.17;4.67;;;21.00;98.90;;;;;;5031697;28;20855;-51
2021/07/29 03:06:21;;;;;;;5.00;4.50;;;21.00;99.10;;;;;;5031667;28;20425;-50
2021/07/29 03:08:47;;;;;;;7.27;6.50;;;21.00;99.20;;;;;;5031320;28;20444;-52
2021/07/29 03:11:14;;;;;;;5.77;5.17;;;21.00;99.40;;;;;;5031803;28;20433;-53
2021/07/29 03:13:41;;;;;;;5.60;4.70;;;20.90;99.30;;;;;;5031826;28;20823;-52
2021/07/29 03:16:07;;;;;;;8.07;5.03;;;20.90;99.40;;;;;;5031602;28;20429;-52
2021/07/29 03:18:34;;;;;;;5.70;5.17;;;20.90;99.60;;;;;;5031350;28;20453;-52
2021/07/29 03:21:02;;;;;;;7.63;4.90;;;20.90;99.70;;;;;;5031504;28;20436;-52
2021/07/29 03:23:29;;;;;;;7.60;4.83;;;20.90;99.80;;;;;;5031443;28;20993;-52
2021/07/29 03:25:56;;;;;;;6.67;4.77;;;20.90;99.90;;;;;;5031487;28;20440;-52
2021/07/29 03:28:22;;;;;;;6.03;4.93;;;20.80;99.90;;;;;;5013255;28;20937;-53
2021/07/29 03:30:49;;;;;;;4.90;4.27;;;20.80;99.90;;;;;;5031537;28;20968;-52
2021/07/29 03:33:15;;;;;;;5.77;5.23;;;20.80;99.90;;;;;;5031396;28;20961;-52
2021/07/29 03:35:42;;;;;;;8.60;5.30;;;20.80;99.90;;;;;;5031273;28;20443;-52
2021/07/29 03:38:11;;;;;;;8.47;5.23;;;20.80;99.90;;;;;;5031208;28;20436;-51
2021/07/29 03:40:38;;;;;;;5.73;4.90;;;20.80;99.90;;;;;;5031357;28;20450;-51
2021/07/29 03:43:07;;;;;;;5.30;4.80;;;20.70;99.90;;;;;;5031232;28;20786;-52
2021/07/29 03:45:35;;;;;;;5.57;4.97;;;20.80;99.90;;;;;;5031321;28;21016;-50
2021/07/29 03:48:02;;;;;;;5.37;4.20;;;20.80;99.90;;;;;;5031083;28;20433;-51
2021/07/29 03:50:30;;;;;;;7.10;4.87;;;20.70;99.90;;;;;;5031340;28;20848;-52
2021/07/29 03:52:58;;;;;;;5.03;4.30;;;20.70;99.90;;;;;;5031098;28;20434;-51
2021/07/29 03:55:26;;;;;;;4.57;4.17;;;20.70;99.90;;;;;;5031281;28;20427;-51
2021/07/29 03:57:52;;;;;;;5.53;4.60;;;20.70;99.90;;;;;;5013411;28;20456;-51
2021/07/29 04:00:19;;;;;;;5.27;4.30;;;20.70;99.90;;;;;;5031572;28;20442;-51
2021/07/29 04:02:46;;;;;;;5.13;4.63;;;20.70;99.90;;;;;;5031294;28;20474;-50
2021/07/29 04:05:12;;;;;;;5.40;4.90;;;20.70;99.90;;;;;;5034263;28;20465;-51
2021/07/29 04:07:39;;;;;;;6.00;4.50;;;20.80;99.90;;;;;;5034948;28;20440;-50
2021/07/29 04:10:07;;;;;;;6.63;4.17;;;20.80;99.90;;;;;;5034453;28;20436;-52
2021/07/29 04:12:35;;;;;;;4.80;4.37;;;20.90;99.90;;;;;;5034630;28;20823;-52
2021/07/29 04:15:02;;;;;;;4.83;4.33;;;20.90;99.90;;;;;;5034616;28;20521;-52
2021/07/29 04:17:28;;;;;;;6.20;4.63;;;21.00;99.90;;;;;;5034896;28;20792;-52
2021/07/29 04:19:57;;;;;;;4.70;4.30;;;21.10;99.90;;;;;;5034220;28;20448;-51
2021/07/29 04:22:24;;;;;;;5.40;4.87;;;21.30;99.90;;;;;;5034608;28;20468;-51
2021/07/29 04:24:53;;;;;;;5.50;4.97;;;21.40;99.90;;;;;;5034390;28;20467;-51
2021/07/29 04:27:20;;;;;;;8.80;4.67;;;21.50;99.80;;;;;;5016679;28;20470;-51
2021/07/29 04:29:48;;;;;;;5.33;4.83;;;21.50;99.50;;;;;;5034174;28;20465;-51
2021/07/29 04:32:15;;;;;;;5.90;4.37;;;21.50;99.30;;;;;;5034255;28;20433;-51
2021/07/29 04:34:42;;;;;;;6.50;5.13;;;21.50;99.20;;;;;;5016382;28;20475;-51
2021/07/29 04:37:08;;;;;;;5.37;3.80;;;21.50;99.20;;;;;;5034334;28;20461;-50
2021/07/29 04:39:37;;;;;;;5.57;4.60;;;21.50;99.20;;;;;;5033872;28;20532;-50
2021/07/29 04:42:05;;;;;;;4.70;4.30;;;21.40;99.20;;;;;;5034172;28;20552;-51
2021/07/29 04:44:31;;;;;;;4.67;4.10;;;21.40;99.20;;;;;;5033899;28;20492;-51
2021/07/29 04:46:59;;;;;;;5.07;4.57;;;21.40;99.20;;;;;;5034461;28;20954;-51
2021/07/29 04:49:27;;;;;;;5.73;5.13;;;21.40;99.20;;;;;;5033968;28;20434;-51
2021/07/29 04:51:53;;;;;;;6.80;4.90;;;21.40;99.20;;;;;;5034134;28;20444;-51
2021/07/29 04:54:20;;;;;;;6.00;4.57;;;21.40;99.10;;;;;;5075687;22;20497;-53
2021/07/29 04:56:47;;;;;;;5.50;4.10;;;21.50;99.10;;;;;;5073626;28;20459;-54
2021/07/29 04:59:13;;;;;;;4.30;3.90;;;21.50;99.00;;;;;;5073252;28;20441;-54
2021/07/29 05:01:40;;;;;;;4.83;4.30;;;21.50;98.90;;;;;;5073798;28;20428;-53
2021/07/29 05:04:10;;;;;;;5.00;4.50;;;21.50;98.80;;;;;;5073373;28;20522;-53
2021/07/29 05:06:37;;;;;;;6.27;5.20;;;21.70;98.70;;;;;;5073550;28;20492;-53
2021/07/29 05:09:04;;;;;;;5.60;4.17;;;21.70;98.50;;;;;;5072807;28;20458;-54
2021/07/29 05:11:31;;;;;;;6.53;5.27;;;21.80;98.40;;;;;;5072774;28;20432;-54
2021/07/29 05:13:58;;;;;;;4.60;4.00;;;21.80;98.20;;;;;;5073345;28;20478;-53
2021/07/29 05:16:24;;;;;;;7.13;3.87;;;21.80;98.10;;;;;;5072273;28;20955;-54
2021/07/29 05:18:51;;;;;;;4.80;4.30;;;21.90;98.00;;;;;;5072845;28;20428;-54
2021/07/29 05:21:19;;;;;;;4.00;3.50;;;21.90;97.90;;;;;;5072954;28;20925;-54
2021/07/29 05:23:46;;;;;;;5.53;4.30;;;22.00;97.70;;;;;;5072822;28;20496;-54
2021/07/29 05:26:16;;;;;;;5.57;4.37;;;22.10;97.50;;;;;;5073002;28;20439;-54
2021/07/29 05:28:43;;;;;;;5.30;4.30;;;22.20;97.30;;;;;;5072628;28;20437;-54
2021/07/29 05:31:11;;;;;;;4.40;4.00;;;22.20;97.10;;;;;;5054505;28;20486;-54
2021/07/29 05:33:38;;;;;;;6.80;4.43;;;22.30;97.00;;;;;;5072532;28;20457;-54
2021/07/29 05:36:05;;;;;;;8.43;4.43;;;22.40;96.80;;;;;;5072762;28;20925;-54
2021/07/29 05:38:33;;;;;;;5.47;4.37;;;22.40;96.60;;;;;;5072152;28;20429;-54
2021/07/29 05:41:04;;;;;;;4.50;4.10;;;22.50;96.40;;;;;;5072574;28;20428;-54
2021/07/29 05:43:31;;;;;;;5.43;3.57;;;22.50;96.10;;;;;;5072530;28;20486;-54
2021/07/29 05:45:58;;;;;;;5.40;4.13;;;22.60;96.10;;;;;;5072124;28;20501;-54
2021/07/29 05:48:24;;;;;;;6.20;4.47;;;22.60;96.00;;;;;;5072155;28;20437;-54
2021/07/29 05:50:53;;;;;;;6.27;4.47;;;22.70;95.90;;;;;;5072183;28;20445;-52
2021/07/29 05:53:19;;;;;;;5.30;4.43;;;22.80;95.70;;;;;;5072011;28;20445;-52
2021/07/29 05:55:47;;;;;;;5.80;4.27;;;22.80;95.40;;;;;;5072099;28;20520;-54
2021/07/29 05:58:14;;;;;;;7.53;4.10;;;22.90;95.20;;;;;;5071676;28;20434;-54
2021/07/29 06:00:40;;;;;;;4.33;3.80;;;22.90;95.00;;;;;;5072005;28;20432;-53
2021/07/29 06:03:07;;;;;;;7.23;4.70;;;23.00;95.00;;;;;;5071973;28;20433;-53
2021/07/29 06:05:34;;;;;;;3.93;3.53;;;23.00;94.80;;;;;;5072213;28;20452;-54
2021/07/29 06:08:00;;;;;;;9.60;4.60;;;23.00;94.60;;;;;;5072069;28;20964;-53
2021/07/29 06:10:27;;;;;;;5.27;4.07;;;23.10;94.50;;;;;;5072047;28;20436;-54
2021/07/29 06:12:55;;;;;;;5.17;4.33;;;23.10;94.30;;;;;;5072031;28;20434;-54
2021/07/29 06:15:21;;;;;;;4.47;4.03;;;23.20;94.20;;;;;;5072130;28;20450;-54
2021/07/29 06:17:54;;;;;;;6.50;4.10;;;23.30;94.00;;;;;;5071871;28;20547;-53
2021/07/29 06:20:20;;;;;;;4.03;3.60;;;23.30;93.70;;;;;;5053348;28;20923;-53
2021/07/29 06:22:47;;;;;;;7.77;4.47;;;23.40;93.60;;;;;;5071448;28;20433;-53
2021/07/29 06:25:14;;;;;;;8.83;4.07;;;23.40;93.40;;;;;;5071191;28;20953;-54
2021/07/29 06:27:41;;;;;;;4.90;3.17;;;23.50;93.40;;;;;;5071581;28;20860;-53
2021/07/29 06:30:09;;;;;;;9.47;4.17;;;23.60;93.20;;;;;;5071323;28;20867;-53
2021/07/29 06:32:36;;;;;;;4.47;3.63;;;23.60;93.00;;;;;;5071499;28;20958;-54
2021/07/29 06:35:02;;;;;;;4.10;3.57;;;23.60;92.70;;;;;;5071204;28;20458;-54
2021/07/29 06:37:29;;;;;;;4.07;3.17;;;23.70;92.70;;;;;;5071219;28;20435;-54
2021/07/29 06:39:56;;;;;;;4.50;4.03;;;23.70;92.50;;;;;;5070826;28;20449;-54
2021/07/29 06:42:23;;;;;;;6.10;3.83;;;23.70;92.30;;;;;;5052997;28;20443;-54
2021/07/29 06:44:49;;;;;;;5.73;3.97;;;23.80;92.20;;;;;;5070713;28;20500;-54
2021/07/29 06:47:20;;;;;;;6.50;3.90;;;23.80;92.00;;;;;;5071222;28;20427;-54
2021/07/29 06:49:47;;;;;;;5.13;3.30;;;23.80;91.70;;;;;;5071125;28;20523;-54
2021/07/29 06:52:14;;;;;;;4.53;3.40;;;23.80;91.70;;;;;;5071376;28;20520;-54
2021/07/29 06:54:41;;;;;;;4.87;2.97;;;23.80;91.60;;;;;;5071064;28;20521;-54
2021/07/29 06:57:09;;;;;;;6.87;4.13;;;23.90;91.60;;;;;;5070919;28;20436;-54
2021/07/29 06:59:36;;;;;;;4.63;3.47;;;23.90;91.50;;;;;;5070821;28;20433;-54
2021/07/29 07:02:04;;;;;;;4.67;3.33;;;23.90;91.30;;;;;;5070932;28;20428;-54
2021/07/29 07:04:32;;;;;;;4.77;3.20;;;23.90;91.10;;;;;;5071395;28;20826;-54
2021/07/29 07:06:58;;;;;;;6.37;3.60;;;23.90;90.80;;;;;;5071119;28;20537;-54
2021/07/29 07:09:25;;;;;;;6.87;3.67;;;24.00;90.90;;;;;;5070861;28;20443;-54
2021/07/29 07:11:51;;;;;;;4.50;3.50;;;24.00;90.40;;;;;;5071402;28;20931;-54
2021/07/29 07:14:18;;;;;;;7.20;3.80;;;24.00;90.10;;;;;;5070952;28;20450;-53
2021/07/29 07:16:45;;;;;;;7.40;3.40;;;24.10;89.70;;;;;;5071293;28;20435;-53
2021/07/29 07:19:12;;;;;;;10.07;4.50;;;24.10;88.40;;;;;;5070838;28;20432;-54
2021/07/29 07:21:40;;;;;;;6.43;3.13;;;24.10;87.90;;;;;;5070996;28;20448;-54
2021/07/29 07:24:07;;;;;;;4.03;3.30;;;24.20;87.80;;;;;;5052417;28;21016;-54
2021/07/29 07:26:34;;;;;;;4.53;3.13;;;24.50;88.10;;;;;;5070777;28;20997;-54
2021/07/29 07:29:00;;;;;;;5.63;3.80;;;24.20;87.50;;;;;;5070261;28;20469;-54
2021/07/29 07:31:27;;;;;;;5.40;3.40;;;24.30;86.50;;;;;;5052790;28;20492;-54
2021/07/29 07:33:54;;;;;;;6.70;3.73;;;24.30;85.90;;;;;;5071101;28;20454;-54
2021/07/29 07:36:21;;;;;;;8.03;3.60;;;24.40;85.10;;;;;;5070751;28;20442;-53
2021/07/29 07:38:52;;;;;;;6.20;3.50;;;24.40;84.50;;;;;;5071610;28;20808;-52
2021/07/29 07:41:19;;;;;;;5.67;3.23;;;24.40;84.30;;;;;;5074496;28;20823;-53
2021/07/29 07:43:46;;;;;;;4.90;3.10;;;24.50;84.30;;;;;;5074280;28;20566;-53
2021/07/29 07:46:13;;;;;;;6.10;3.67;;;24.50;83.90;;;;;;5074568;28;20429;-53
2021/07/29 07:48:39;;;;;;;11.67;3.50;;;24.50;83.40;;;;;;5074263;28;20440;-53
2021/07/29 07:51:06;;;;;;;6.33;3.70;;;24.50;83.10;;;;;;5074700;28;20435;-53
2021/07/29 07:53:33;;;;;;;8.63;4.10;;;24.60;82.80;;;;;;5074409;28;20527;-53
2021/07/29 07:56:04;;;;;;;14.33;3.90;;;24.60;80.90;;;;;;5074452;28;20432;-53
2021/07/29 07:58:31;;;;;;;6.47;3.37;;;24.70;81.10;;;;;;5074199;28;20440;-53
2021/07/29 08:00:58;;;;;;;7.23;3.83;;;24.80;80.40;;;;;;5074369;28;20424;-53
2021/07/29 08:03:25;;;;;;;4.63;2.63;;;24.80;79.30;;;;;;5056649;28;20502;-53
2021/07/29 08:05:51;;;;;;;3.00;2.70;;;24.90;78.20;;;;;;5074386;28;20849;-53
2021/07/29 08:08:18;;;;;;;6.23;3.20;;;24.90;78.50;;;;;;5074060;28;20487;-53
2021/07/29 08:10:49;;;;;;;3.77;3.10;;;24.90;78.40;;;;;;5074318;28;20442;-54
2021/07/29 08:13:17;;;;;;;4.70;3.40;;;24.90;77.40;;;;;;5073795;28;20440;-54
2021/07/29 08:15:44;;;;;;;5.67;3.00;;;24.90;77.50;;;;;;5074112;28;20870;-53
2021/07/29 08:18:11;;;;;;;7.10;3.40;;;24.90;77.70;;;;;;5073865;28;20433;-54
2021/07/29 08:20:40;;;;;;;3.70;2.87;;;24.90;77.90;;;;;;5074094;28;20433;-54
2021/07/29 08:23:08;;;;;;;6.30;2.97;;;25.00;77.70;;;;;;5074070;28;20459;-54
2021/07/29 08:25:36;;;;;;;7.73;3.67;;;25.10;77.70;;;;;;5073700;28;20489;-54
2021/07/29 08:28:04;;;;;;;4.47;2.83;;;25.20;77.40;;;;;;5055962;28;20450;-53
2021/07/29 08:30:33;;;;;;;5.37;3.43;;;25.40;77.70;;;;;;5073720;28;20438;-53
2021/07/29 08:32:59;;;;;;;5.87;3.40;;;25.50;77.00;;;;;;5073319;28;20429;-53
2021/07/29 08:35:26;;;;;;;6.00;2.90;;;25.50;76.90;;;;;;5073607;28;20825;-53
2021/07/29 08:37:52;;;;;;;5.83;3.40;;;25.60;77.00;;;;;;5073827;28;20816;-53
2021/07/29 08:40:20;;;;;;;7.53;4.00;;;25.60;77.20;;;;;;5073528;28;20444;-53
2021/07/29 08:42:48;;;;;;;6.73;3.33;;;25.60;76.90;;;;;;5073740;28;20433;-53
2021/07/29 08:45:15;;;;;;;4.70;3.40;;;25.60;77.00;;;;;;5073466;28;20488;-53
2021/07/29 08:47:46;;;;;;;4.63;3.57;;;25.60;76.80;;;;;;5073429;28;20521;-53
2021/07/29 08:50:13;;;;;;;5.40;3.57;;;25.70;76.70;;;;;;5072020;28;20441;-54
2021/07/29 08:52:40;;;;;;;6.13;3.20;;;25.70;76.40;;;;;;5073332;28;20861;-54
2021/07/29 08:55:08;;;;;;;8.60;5.00;;;25.80;76.20;;;;;;5073351;28;20535;-54
2021/07/29 08:57:37;;;;;;;4.53;2.80;;;25.80;75.70;;;;;;5073226;28;20425;-54
2021/07/29 09:00:08;;;;;;;5.67;2.80;;;25.70;74.80;;;;;;5073103;28;20461;-54
2021/07/29 09:02:34;;;;;;;5.93;3.60;;;25.70;74.50;;;;;;5073225;28;20460;-54
2021/07/29 09:05:11;;;;;;;5.30;3.00;;;25.60;74.80;;;;;;5072851;28;20475;-53
2021/07/29 09:07:39;;;;;;;7.23;3.20;;;25.50;75.00;;;;;;5072965;28;20434;-53
2021/07/29 09:10:23;;;;;;;8.07;3.40;;;25.50;75.20;;;;;;5072520;28;20434;-53
2021/07/29 09:13:11;;;;;;;6.37;3.03;;;25.40;74.90;;;;;;5055129;28;20937;-53
2021/07/29 09:15:38;;;;;;;6.03;3.27;;;25.40;75.30;;;;;;5072984;28;20450;-54
2021/07/29 09:18:06;;;;;;;3.30;3.00;;;25.50;75.50;;;;;;5072490;28;20429;-53
2021/07/29 09:20:34;;;;;;;6.83;3.50;;;25.50;75.00;;;;;;5054645;28;20492;-53
2021/07/29 09:23:17;;;;;;;4.80;3.37;;;25.70;74.80;;;;;;5072863;28;20729;-53
2021/07/29 09:25:44;;;;;;;5.43;3.60;;;25.80;74.20;;;;;;5069503;28;20481;-53
2021/07/29 09:28:12;;;;;;;6.67;3.53;;;26.00;74.10;;;;;;5072374;28;20442;-54
2021/07/29 09:30:39;;;;;;;4.10;3.40;;;26.10;73.20;;;;;;5072558;28;20437;-53
2021/07/29 09:33:09;;;;;;;4.13;3.00;;;26.20;71.90;;;;;;5072941;28;20434;-54
2021/07/29 09:35:44;;;;;;;4.60;3.33;;;26.30;71.60;;;;;;5072749;28;20470;-54
2021/07/29 09:38:19;;;;;;;4.00;3.33;;;26.40;71.00;;;;;;5071927;28;20426;-55
2021/07/29 09:40:48;;;;;;;5.00;3.50;;;26.40;70.90;;;;;;5071928;28;20536;-54
2021/07/29 09:43:17;;;;;;;5.20;4.00;;;26.50;70.20;;;;;;5072116;28;20780;-54
2021/07/29 09:45:45;;;;;;;4.60;3.23;;;26.60;70.00;;;;;;5072320;28;20481;-53
2021/07/29 09:48:12;;;;;;;4.10;3.23;;;26.60;69.00;;;;;;5071896;28;20429;-53
2021/07/29 09:50:41;;;;;;;5.23;3.50;;;26.70;68.20;;;;;;5072022;28;20436;-53
2021/07/29 09:53:08;;;;;;;5.10;4.33;;;26.70;67.90;;;;;;5072157;28;20430;-54
2021/07/29 09:55:36;;;;;;;5.97;3.50;;;26.60;68.20;;;;;;5053968;28;21077;-54
2021/07/29 09:58:04;;;;;;;4.87;3.70;;;26.60;68.10;;;;;;5071937;28;20941;-53
2021/07/29 10:00:32;;;;;;;29.87;5.37;;;26.50;68.50;;;;;;5072210;28;20498;-54
2021/07/29 10:03:00;;;;;;;7.13;4.10;;;26.50;68.80;;;;;;5071633;28;20513;-54
2021/07/29 10:05:31;;;;;;;5.10;2.97;;;26.30;69.20;;;;;;5071667;28;20957;-53
2021/07/29 10:08:02;;;;;;;10.40;3.67;;;26.20;69.70;;;;;;5071990;28;20433;-53
2021/07/29 10:10:30;;;;;;;15.40;4.03;;;26.10;70.50;;;;;;5072021;28;20440;-54
2021/07/29 10:12:57;;;;;;;5.93;3.40;;;26.00;70.90;;;;;;5071608;28;20520;-54
2021/07/29 10:15:41;;;;;;;4.50;3.33;;;26.00;71.00;;;;;;5071559;28;20549;-54
2021/07/29 10:18:09;;;;;;;5.73;3.70;;;26.00;71.40;;;;;;5071188;28;20472;-54
2021/07/29 10:20:37;;;;;;;6.37;4.40;;;26.00;71.30;;;;;;5071212;28;20434;-54
2021/07/29 10:23:28;;;;;;;5.40;4.00;;;26.00;71.10;;;;;;5071792;28;20464;-53
2021/07/29 10:26:11;;;;;;;3.73;3.00;;;26.00;70.40;;;;;;5071687;28;20469;-53
2021/07/29 10:28:39;;;;;;;14.03;4.33;;;26.00;70.10;;;;;;5070797;28;20483;-53
2021/07/29 10:31:12;;;;;;;4.20;3.67;;;25.90;70.30;;;;;;5071393;28;20910;-54
2021/07/29 10:33:39;;;;;;;8.87;3.50;;;25.80;70.20;;;;;;5071383;28;20451;-53
2021/07/29 10:36:08;;;;;;;5.90;3.20;;;25.70;69.70;;;;;;5071312;28;20858;-54
2021/07/29 10:38:52;;;;;;;7.20;3.20;;;25.60;69.60;;;;;;5070280;28;20429;-54
2021/07/29 10:41:45;;;;;;;4.57;3.17;;;25.60;68.80;;;;;;5071320;28;20480;-54
2021/07/29 10:44:52;;;;;;;6.03;3.60;;;25.60;68.30;;;;;;5070805;28;20548;-54
2021/07/29 10:47:37;;;;;;;5.93;3.57;;;25.60;68.00;;;;;;5062826;28;20465;-53
2021/07/29 10:50:14;;;;;;;4.17;2.50;;;25.60;68.00;;;;;;5070937;28;20445;-53
2021/07/29 10:52:45;;;;;;;5.00;3.27;;;25.60;68.10;;;;;;5070932;28;20939;-53
2021/07/29 10:55:14;;;;;;;3.90;2.50;;;25.70;68.40;;;;;;5073945;22;20548;-52
2021/07/29 10:57:41;;;;;;;6.00;3.50;;;25.70;68.60;;;;;;5051609;28;20434;-53
2021/07/29 11:00:09;;;;;;;11.83;3.77;;;25.90;68.80;;;;;;5051194;28;20438;-52
2021/07/29 11:02:43;;;;;;;5.13;3.47;;;26.00;67.80;;;;;;5051495;28;20441;-52
2021/07/29 11:05:15;;;;;;;6.63;3.40;;;26.00;67.50;;;;;;5051987;28;20826;-53
2021/07/29 11:07:43;;;;;;;4.97;3.20;;;26.10;67.20;;;;;;5033896;28;20987;-51
2021/07/29 11:10:11;;;;;;;8.93;3.53;;;26.20;66.70;;;;;;5050940;28;20449;-51
2021/07/29 11:12:41;;;;;;;36.07;6.40;;;26.40;66.50;;;;;;5052011;28;20426;-51
2021/07/29 11:15:09;;;;;;;7.53;3.90;;;26.50;65.80;;;;;;5051391;28;20459;-51
2021/07/29 11:17:36;;;;;;;11.27;4.00;;;26.60;65.30;;;;;;5051167;28;20438;-51
2021/07/29 11:20:05;;;;;;;12.43;4.70;;;26.60;66.00;;;;;;5051525;28;20467;-53
2021/07/29 11:22:42;;;;;;;7.33;3.60;;;26.70;65.00;;;;;;5050871;28;20442;-52
2021/07/29 11:25:09;;;;;;;10.83;3.80;;;26.70;63.50;;;;;;5050834;28;20806;-52
2021/07/29 11:27:36;;;;;;;15.83;4.50;;;26.70;63.60;;;;;;5051023;28;20434;-53
2021/07/29 11:30:05;;;;;;;68.07;13.80;;;26.80;63.60;;;;;;5050933;28;20430;-53
2021/07/29 11:32:39;;;;;;;9.30;3.83;;;26.90;63.70;;;;;;5051048;28;20431;-52
2021/07/29 11:35:07;;;;;;;8.90;3.93;;;26.80;63.00;;;;;;5050612;28;20550;-52
2021/07/29 11:37:35;;;;;;;4.23;2.90;;;26.80;63.10;;;;;;5051196;28;20438;-52
2021/07/29 11:40:03;;;;;;;7.77;3.13;;;26.70;62.70;;;;;;5050996;28;20431;-53
2021/07/29 11:42:37;;;;;;;8.60;3.47;;;26.60;61.40;;;;;;5051135;28;20433;-52
2021/07/29 11:45:19;;;;;;;6.93;3.00;;;26.60;60.00;;;;;;5051215;28;20477;-52
2021/07/29 11:47:46;;;;;;;15.23;4.80;;;26.70;60.20;;;;;;5050979;28;20521;-52
2021/07/29 11:50:13;;;;;;;4.40;3.40;;;26.80;59.80;;;;;;5050913;28;20451;-52
2021/07/29 11:52:51;;;;;;;7.13;3.03;;;26.90;59.30;;;;;;5051314;28;20429;-51
2021/07/29 11:55:20;;;;;;;6.13;2.90;;;27.00;57.70;;;;;;5051178;28;20473;-52
2021/07/29 11:57:47;;;;;;;5.93;2.83;;;27.00;57.50;;;;;;5050584;28;21012;-52
2021/07/29 12:00:26;;;;;;;34.53;10.83;;;27.00;57.00;;;;;;5050816;28;20520;-52
2021/07/29 12:02:53;;;;;;;6.17;3.17;;;27.10;56.70;;;;;;5032895;28;20959;-52
2021/07/29 12:05:20;;;;;;;10.30;3.10;;;27.20;56.30;;;;;;5032600;28;20555;-51
2021/07/29 12:07:47;;;;;;;6.37;2.90;;;27.30;56.30;;;;;;5050891;28;20434;-52
2021/07/29 12:10:17;;;;;;;10.87;3.60;;;27.40;56.10;;;;;;5050534;28;20430;-51
2021/07/29 12:12:44;;;;;;;9.70;3.03;;;27.40;55.80;;;;;;5050498;28;20443;-52
2021/07/29 12:15:15;;;;;;;9.87;3.20;;;27.40;55.50;;;;;;5050539;28;20542;-53
2021/07/29 12:17:42;;;;;;;4.77;2.37;;;27.30;54.90;;;;;;5032974;28;20985;-52
2021/07/29 12:20:10;;;;;;;7.60;2.87;;;27.20;54.70;;;;;;5050297;28;20903;-52
2021/07/29 12:22:37;;;;;;;3.73;2.03;;;27.10;54.10;;;;;;5050876;28;20441;-53
2021/07/29 12:25:06;;;;;;;4.00;2.63;;;26.90;53.80;;;;;;5052030;28;20501;-51
2021/07/29 12:27:46;;;;;;;5.30;2.63;;;26.70;53.50;;;;;;5054036;28;20435;-53
2021/07/29 12:30:29;;;;;;;6.40;2.10;;;26.70;53.00;;;;;;5053646;28;20429;-52
2021/07/29 12:33:13;;;;;;;7.40;2.33;;;26.70;52.70;;;;;;5051715;28;20528;-50
2021/07/29 12:35:42;;;;;;;5.10;2.90;;;26.70;52.40;;;;;;5054008;28;20461;-51
2021/07/29 12:38:10;;;;;;;4.63;2.43;;;26.80;53.00;;;;;;5053349;28;20878;-53
2021/07/29 12:40:36;;;;;;;6.20;3.10;;;26.90;52.40;;;;;;5053988;28;20530;-52
2021/07/29 12:43:23;;;;;;;7.83;3.40;;;27.00;52.20;;;;;;5035625;28;20461;-53
2021/07/29 12:45:54;;;;;;;8.50;2.47;;;27.00;51.70;;;;;;5053462;28;20586;-52
2021/07/29 12:48:22;;;;;;;5.00;2.30;;;26.80;52.20;;;;;;5053169;28;20431;-52
2021/07/29 12:50:49;;;;;;;7.97;2.77;;;26.80;52.80;;;;;;5053505;28;20465;-51
2021/07/29 12:53:16;;;;;;;5.90;2.50;;;26.70;52.70;;;;;;5054232;28;20438;-52